Time;durP1;ratioP1;P1;durP2;ratioP2;P2;SDS_P1;SDS_P2;PMS_P1;PMS_P2;Temp;Humidity;BMP_temperature;BMP_pressure;BME280_temperature;BME280_humidity;BME280_pressure;Samples;Min_cycle;Max_cycle;Signal;HPM_P1;HPM_P2
2021/04/07 00:00:13;;;;;;;4.75;4.43;;;-0.40;99.90;;;;;;4827726;29;20217;-82
2021/04/07 00:02:40;;;;;;;3.17;2.88;;;-0.40;99.90;;;;;;4827414;29;20275;-82
2021/04/07 00:05:09;;;;;;;7.30;3.92;;;-0.30;99.90;;;;;;4827582;29;20267;-82
2021/04/07 00:07:35;;;;;;;2.90;2.70;;;-0.40;99.90;;;;;;4828042;29;20366;-82
2021/04/07 00:10:04;;;;;;;3.65;3.35;;;-0.40;99.90;;;;;;4827620;29;20269;-82
2021/04/07 00:12:30;;;;;;;5.20;3.78;;;-0.50;99.90;;;;;;4826153;29;20241;-82
2021/04/07 00:14:57;;;;;;;5.88;4.03;;;-0.50;99.90;;;;;;4827746;29;20214;-82
2021/04/07 00:17:23;;;;;;;3.30;3.10;;;-0.40;99.90;;;;;;4827479;29;20265;-82
2021/04/07 00:19:50;;;;;;;9.15;4.63;;;-0.40;99.90;;;;;;4827249;29;20221;-82
2021/04/07 00:22:16;;;;;;;3.45;3.15;;;-0.40;99.90;;;;;;4827253;29;20214;-82
2021/04/07 00:24:43;;;;;;;6.00;2.75;;;-0.40;99.90;;;;;;4827303;29;20213;-82
2021/04/07 00:27:11;;;;;;;3.15;2.95;;;-0.40;99.90;;;;;;4826962;29;20244;-82
2021/04/07 00:29:37;;;;;;;4.05;3.03;;;-0.40;99.90;;;;;;4827335;29;20210;-82
2021/04/07 00:32:04;;;;;;;3.30;3.00;;;-0.40;99.90;;;;;;4826946;29;20283;-81
2021/04/07 00:34:33;;;;;;;3.47;3.17;;;-0.50;99.90;;;;;;4827012;29;20216;-81
2021/04/07 00:37:02;;;;;;;3.55;3.35;;;-0.50;99.90;;;;;;4827418;29;20320;-82
2021/04/07 00:39:28;;;;;;;3.42;3.13;;;-0.50;99.90;;;;;;4826392;29;20218;-82
2021/04/07 00:41:54;;;;;;;3.60;3.30;;;-0.50;99.90;;;;;;4826691;29;20576;-82
2021/04/07 00:44:20;;;;;;;6.00;3.78;;;-0.50;99.90;;;;;;4826662;29;20303;-82
2021/04/07 00:46:47;;;;;;;3.28;3.08;;;-0.60;99.90;;;;;;4827165;29;20236;-82
2021/04/07 00:49:13;;;;;;;3.55;3.35;;;-0.50;99.90;;;;;;4827081;29;20222;-82
2021/04/07 00:51:44;;;;;;;2.90;2.55;;;-0.50;99.90;;;;;;4826257;29;20291;-82
2021/04/07 00:54:11;;;;;;;3.75;2.28;;;-0.40;99.90;;;;;;4826540;29;20707;-82
2021/04/07 00:56:38;;;;;;;3.58;3.38;;;-0.40;99.90;;;;;;4826483;29;20209;-82
2021/04/07 00:59:04;;;;;;;3.72;2.67;;;-0.40;99.90;;;;;;4826576;29;20217;-82
2021/04/07 01:01:31;;;;;;;3.47;3.17;;;-0.40;99.90;;;;;;4826421;29;20210;-82
2021/04/07 01:03:57;;;;;;;3.75;3.45;;;-0.40;99.90;;;;;;4827070;29;20225;-82
2021/04/07 01:06:24;;;;;;;3.88;3.58;;;-0.40;99.90;;;;;;4826941;29;20217;-82
2021/04/07 01:08:50;;;;;;;4.20;3.05;;;-0.40;99.90;;;;;;4839641;29;20220;-81
2021/04/07 01:11:21;;;;;;;3.30;3.00;;;-0.40;99.90;;;;;;4846311;29;20224;-81
2021/04/07 01:13:49;;;;;;;2.47;2.30;;;-0.30;99.90;;;;;;4832805;29;20218;-82
2021/04/07 01:16:15;;;;;;;3.65;3.35;;;-0.40;99.90;;;;;;4827201;29;20210;-82
2021/04/07 01:18:41;;;;;;;3.67;2.80;;;-0.40;99.90;;;;;;4827203;29;20234;-82
2021/04/07 01:21:08;;;;;;;3.22;2.78;;;-0.40;99.90;;;;;;4826721;29;20244;-82
2021/04/07 01:23:35;;;;;;;3.17;2.88;;;-0.30;99.90;;;;;;4826407;29;20221;-82
2021/04/07 01:26:02;;;;;;;2.25;2.13;;;-0.30;99.90;;;;;;4827170;29;20213;-83
2021/04/07 01:28:28;;;;;;;4.13;3.83;;;-0.40;99.90;;;;;;4826911;29;20669;-83
2021/04/07 01:30:55;;;;;;;3.70;3.28;;;-0.50;99.90;;;;;;4826939;29;20234;-82
2021/04/07 01:33:23;;;;;;;4.10;3.80;;;-0.60;99.90;;;;;;4826630;29;20217;-82
2021/04/07 01:35:49;;;;;;;4.15;3.85;;;-0.70;99.90;;;;;;4827104;29;20214;-83
2021/04/07 01:38:16;;;;;;;4.60;4.20;;;-0.60;99.90;;;;;;4827199;29;20661;-82
2021/04/07 01:40:43;;;;;;;4.97;3.45;;;-0.60;99.90;;;;;;4826868;29;20221;-82
2021/04/07 01:43:11;;;;;;;3.50;3.17;;;-0.60;99.90;;;;;;4826639;29;20221;-82
2021/04/07 01:45:38;;;;;;;6.20;4.32;;;-0.50;99.90;;;;;;4826753;29;20593;-82
2021/04/07 01:48:06;;;;;;;5.30;4.15;;;-0.60;99.90;;;;;;4826561;29;20966;-81
2021/04/07 01:50:32;;;;;;;3.50;3.30;;;-0.60;99.90;;;;;;4826758;29;20310;-83
2021/04/07 01:52:58;;;;;;;3.40;3.05;;;-0.40;99.90;;;;;;4826491;29;20643;-82
2021/04/07 01:55:25;;;;;;;3.78;3.47;;;-0.60;99.90;;;;;;4826287;29;20214;-82
2021/04/07 01:57:51;;;;;;;4.40;3.30;;;-0.60;99.90;;;;;;4826413;29;20382;-83
2021/04/07 02:00:20;;;;;;;4.18;3.88;;;-0.70;99.90;;;;;;4826854;29;20220;-82
2021/04/07 02:02:47;;;;;;;4.70;3.47;;;-0.70;99.90;;;;;;4825227;29;20269;-82
2021/04/07 02:05:15;;;;;;;5.00;4.45;;;-0.70;99.90;;;;;;4826882;29;20240;-83
2021/04/07 02:07:41;;;;;;;6.80;5.70;;;-0.80;99.90;;;;;;4826696;29;20234;-82
2021/04/07 02:10:10;;;;;;;9.27;4.50;;;-0.80;99.90;;;;;;4826176;29;20676;-83
2021/04/07 02:12:37;;;;;;;4.68;4.22;;;-0.80;99.90;;;;;;4825276;29;20233;-83
2021/04/07 02:15:07;;;;;;;4.05;3.63;;;-0.80;99.90;;;;;;4825445;29;20228;-83
2021/04/07 02:17:34;;;;;;;4.55;3.45;;;-0.80;99.90;;;;;;4825163;29;20238;-83
2021/04/07 02:20:00;;;;;;;4.53;3.97;;;-0.80;99.90;;;;;;4825559;29;20214;-83
2021/04/07 02:22:28;;;;;;;5.78;4.57;;;-0.80;99.90;;;;;;4825078;29;20233;-83
2021/04/07 02:24:55;;;;;;;5.20;4.60;;;-0.80;99.90;;;;;;4824913;29;20217;-83
2021/04/07 02:27:23;;;;;;;4.60;4.13;;;-0.80;99.90;;;;;;4825346;29;20237;-82
2021/04/07 02:30:02;;;;;;;3.95;3.65;;;-0.80;99.90;;;;;;4824900;29;20724;-83
2021/04/07 02:32:29;;;;;;;5.47;4.10;;;-0.80;99.90;;;;;;4822745;29;20312;-83
2021/04/07 02:34:56;;;;;;;7.43;4.88;;;-0.90;99.90;;;;;;4826847;29;20221;-83
2021/04/07 02:37:22;;;;;;;5.93;4.25;;;-0.90;99.90;;;;;;4829428;29;20268;-83
2021/04/07 02:39:49;;;;;;;6.90;5.00;;;-0.90;99.90;;;;;;4829196;29;20271;-83
2021/04/07 02:42:17;;;;;;;3.30;3.10;;;-0.90;99.90;;;;;;4829069;29;20262;-83
2021/04/07 02:44:44;;;;;;;4.43;3.85;;;-1.00;99.90;;;;;;4829229;29;20235;-83
2021/04/07 02:47:10;;;;;;;3.95;3.65;;;-1.00;99.90;;;;;;4828708;29;20249;-83
2021/04/07 02:49:37;;;;;;;5.90;4.68;;;-1.00;99.90;;;;;;4828992;29;20217;-83
2021/04/07 02:52:05;;;;;;;2.80;2.65;;;-1.00;99.90;;;;;;4828964;29;20226;-83
2021/04/07 02:54:32;;;;;;;2.67;2.47;;;-0.90;99.90;;;;;;4828993;29;20225;-83
2021/04/07 02:56:58;;;;;;;4.18;3.88;;;-0.90;99.90;;;;;;4828985;29;20240;-83
2021/04/07 02:59:25;;;;;;;7.95;5.00;;;-0.90;99.90;;;;;;4828861;29;20220;-83
2021/04/07 03:01:51;;;;;;;4.15;3.85;;;-0.90;99.90;;;;;;4828333;29;20611;-83
2021/04/07 03:04:17;;;;;;;4.63;4.32;;;-0.80;99.90;;;;;;4828938;29;20218;-83
2021/04/07 03:06:44;;;;;;;6.18;4.15;;;-0.80;99.90;;;;;;4828141;29;20229;-83
2021/04/07 03:09:11;;;;;;;5.05;4.63;;;-0.70;99.90;;;;;;4827891;29;20596;-83
2021/04/07 03:11:38;;;;;;;4.80;4.40;;;-0.70;99.90;;;;;;4827770;29;20240;-83
2021/04/07 03:14:05;;;;;;;2.90;2.70;;;-0.70;99.90;;;;;;4827768;29;20680;-83
2021/04/07 03:16:33;;;;;;;4.38;4.00;;;-0.70;99.90;;;;;;4827470;29;20217;-83
2021/04/07 03:19:01;;;;;;;3.45;3.17;;;-0.70;99.90;;;;;;4827893;29;20218;-83
2021/04/07 03:21:27;;;;;;;4.63;4.22;;;-0.60;99.90;;;;;;4827523;29;20213;-83
2021/04/07 03:23:54;;;;;;;3.72;3.42;;;-0.70;99.90;;;;;;4827816;29;20223;-83
2021/04/07 03:26:21;;;;;;;5.18;4.55;;;-0.60;99.90;;;;;;4828098;29;20213;-83
2021/04/07 03:28:48;;;;;;;1.55;1.45;;;-0.60;99.90;;;;;;4828084;29;20238;-83
2021/04/07 03:31:15;;;;;;;4.05;3.75;;;-0.70;99.90;;;;;;4827762;29;20355;-83
2021/04/07 03:33:41;;;;;;;5.00;4.03;;;-0.60;99.90;;;;;;4827647;29;20214;-83
2021/04/07 03:36:08;;;;;;;4.80;4.13;;;-0.60;99.90;;;;;;4828325;29;20218;-83
2021/04/07 03:38:35;;;;;;;5.63;5.03;;;-0.50;99.90;;;;;;4827881;29;20230;-83
2021/04/07 03:41:04;;;;;;;4.00;3.70;;;-0.60;99.90;;;;;;4827828;29;20217;-83
2021/04/07 03:43:32;;;;;;;3.50;3.22;;;-0.60;99.90;;;;;;4827222;29;20217;-83
2021/04/07 03:45:59;;;;;;;3.38;3.10;;;-0.60;99.90;;;;;;4827354;29;20249;-83
2021/04/07 03:48:27;;;;;;;3.22;3.03;;;-0.60;99.90;;;;;;4827956;29;20704;-83
2021/04/07 03:50:55;;;;;;;2.97;2.65;;;-0.60;99.90;;;;;;4827384;29;20222;-83
2021/04/07 03:53:22;;;;;;;3.92;3.63;;;-0.60;99.90;;;;;;4827326;29;20236;-83
2021/04/07 03:55:50;;;;;;;4.50;4.10;;;-0.60;99.90;;;;;;4827547;29;20214;-82
2021/04/07 03:58:17;;;;;;;3.92;3.63;;;-0.60;99.90;;;;;;4827367;29;20252;-82
2021/04/07 04:00:44;;;;;;;4.20;3.80;;;-0.50;99.90;;;;;;4827814;29;20238;-83
2021/04/07 04:03:11;;;;;;;4.68;4.30;;;-0.50;99.90;;;;;;4827238;29;20213;-83
2021/04/07 04:05:38;;;;;;;3.50;2.92;;;-0.50;99.90;;;;;;4827884;29;20308;-83
2021/04/07 04:08:05;;;;;;;2.90;2.72;;;-0.50;99.90;;;;;;4827119;29;20302;-83
2021/04/07 04:10:32;;;;;;;3.45;2.90;;;-0.60;99.90;;;;;;4827091;29;20244;-83
2021/04/07 04:12:58;;;;;;;5.75;3.90;;;-0.60;99.90;;;;;;4827154;29;20237;-82
2021/04/07 04:15:24;;;;;;;3.25;3.00;;;-0.60;99.90;;;;;;4827268;29;20209;-82
2021/04/07 04:17:52;;;;;;;4.57;3.70;;;-0.60;99.90;;;;;;4827083;29;20238;-82
2021/04/07 04:20:19;;;;;;;4.28;3.97;;;-0.60;99.90;;;;;;4827049;29;20601;-82
2021/04/07 04:22:46;;;;;;;5.30;4.43;;;-0.60;99.90;;;;;;4827083;29;20266;-82
2021/04/07 04:25:13;;;;;;;3.97;3.20;;;-0.50;99.90;;;;;;4826693;29;20225;-82
2021/04/07 04:27:40;;;;;;;3.70;3.40;;;-0.40;99.90;;;;;;4828797;29;20783;-83
2021/04/07 04:30:08;;;;;;;3.67;3.35;;;-0.30;99.90;;;;;;4833181;29;20220;-82
2021/04/07 04:32:35;;;;;;;3.15;2.85;;;-0.40;99.90;;;;;;4831849;29;20789;-83
2021/04/07 04:35:02;;;;;;;3.75;3.10;;;-0.40;99.90;;;;;;4832344;29;20214;-83
2021/04/07 04:37:29;;;;;;;2.80;2.20;;;-0.40;99.90;;;;;;4832576;29;20613;-82
2021/04/07 04:39:55;;;;;;;3.58;3.10;;;-0.40;99.90;;;;;;4832084;29;20209;-82
2021/04/07 04:42:21;;;;;;;4.00;3.70;;;-0.50;99.90;;;;;;4832432;29;20210;-82
2021/04/07 04:44:47;;;;;;;3.30;3.03;;;-0.50;99.90;;;;;;4832144;29;20214;-82
2021/04/07 04:47:14;;;;;;;2.42;2.22;;;-0.40;99.90;;;;;;4832251;29;20230;-82
2021/04/07 04:49:40;;;;;;;4.10;3.67;;;-0.50;99.90;;;;;;4832165;29;20247;-82
2021/04/07 04:52:07;;;;;;;4.13;3.78;;;-0.50;99.90;;;;;;4835466;29;20237;-80
2021/04/07 04:54:33;;;;;;;2.83;2.63;;;-0.40;99.90;;;;;;4846710;29;20220;-80
2021/04/07 04:56:59;;;;;;;3.22;2.80;;;-0.50;99.90;;;;;;4842761;29;20242;-82
2021/04/07 04:59:26;;;;;;;2.97;2.55;;;-0.50;99.90;;;;;;4845012;29;20252;-82
2021/04/07 05:01:52;;;;;;;4.93;2.25;;;-0.50;99.90;;;;;;4839991;29;20273;-81
2021/04/07 05:04:18;;;;;;;2.50;2.30;;;-0.50;99.90;;;;;;4837228;29;20228;-82
2021/04/07 05:06:45;;;;;;;2.60;2.40;;;-0.50;99.90;;;;;;4834274;29;20249;-81
2021/04/07 05:09:12;;;;;;;3.35;2.28;;;-0.40;99.90;;;;;;4834185;29;20214;-82
2021/04/07 05:11:38;;;;;;;3.17;2.20;;;-0.50;99.90;;;;;;4834618;29;20320;-82
2021/04/07 05:14:04;;;;;;;2.70;2.50;;;-0.40;99.90;;;;;;4835271;29;20216;-83
2021/04/07 05:16:33;;;;;;;4.15;2.53;;;-0.40;99.90;;;;;;4834435;29;20277;-83
2021/04/07 05:18:59;;;;;;;14.23;3.30;;;-0.50;99.90;;;;;;4834400;29;20676;-81
2021/04/07 05:21:26;;;;;;;3.28;1.75;;;-0.50;99.90;;;;;;4833288;29;20209;-82
2021/04/07 05:23:52;;;;;;;1.75;1.65;;;-0.40;99.90;;;;;;4833594;29;20284;-81
2021/04/07 05:26:19;;;;;;;3.65;2.55;;;-0.50;99.90;;;;;;4832640;29;20689;-83
2021/04/07 05:28:46;;;;;;;2.05;1.95;;;-0.50;99.90;;;;;;4832741;29;20241;-82
2021/04/07 05:31:13;;;;;;;3.75;1.77;;;-0.50;99.90;;;;;;4829085;29;20234;-82
2021/04/07 05:33:41;;;;;;;4.20;2.83;;;-0.40;99.90;;;;;;4828146;29;20222;-83
2021/04/07 05:36:09;;;;;;;3.47;2.30;;;-0.40;99.90;;;;;;4829134;29;20222;-83
2021/04/07 05:38:35;;;;;;;2.95;1.40;;;-0.40;99.90;;;;;;4829306;29;20238;-83
2021/04/07 05:41:03;;;;;;;2.17;1.98;;;-0.40;99.90;;;;;;4828937;29;20214;-82
2021/04/07 05:43:32;;;;;;;3.58;2.45;;;-0.40;99.90;;;;;;4828905;29;20213;-83
2021/04/07 05:45:58;;;;;;;3.40;3.13;;;-0.40;99.90;;;;;;4828828;29;20217;-83
2021/04/07 05:48:24;;;;;;;4.90;2.38;;;-0.50;99.90;;;;;;4829638;29;20242;-83
2021/04/07 05:50:52;;;;;;;2.33;1.88;;;-0.50;99.90;;;;;;4828892;29;20221;-82
2021/04/07 05:53:19;;;;;;;1.98;1.80;;;-0.50;99.90;;;;;;4829074;29;20220;-81
2021/04/07 05:55:47;;;;;;;2.67;2.50;;;-0.50;99.90;;;;;;4828740;29;20248;-82
2021/04/07 05:58:14;;;;;;;2.17;2.08;;;-0.40;99.90;;;;;;4827715;29;20244;-82
2021/04/07 06:00:45;;;;;;;2.25;2.05;;;-0.40;99.90;;;;;;4827973;29;20220;-82
2021/04/07 06:03:12;;;;;;;3.90;2.90;;;-0.50;99.90;;;;;;4827912;29;20210;-82
2021/04/07 06:05:40;;;;;;;2.42;1.80;;;-0.50;99.90;;;;;;4828305;29;20585;-82
2021/04/07 06:08:08;;;;;;;3.05;2.85;;;-0.50;99.90;;;;;;4839512;29;20237;-80
2021/04/07 06:10:37;;;;;;;1.85;1.75;;;-0.50;99.90;;;;;;4834255;29;20214;-80
2021/04/07 06:13:03;;;;;;;2.40;2.30;;;-0.40;99.90;;;;;;4842173;29;20229;-83
2021/04/07 06:15:31;;;;;;;2.80;2.13;;;-0.50;99.90;;;;;;4845887;29;20219;-81
2021/04/07 06:18:00;;;;;;;1.65;1.30;;;-0.50;99.90;;;;;;4845515;29;20316;-82
2021/04/07 06:20:28;;;;;;;3.53;2.58;;;-0.60;99.90;;;;;;4846162;29;20224;-81
2021/04/07 06:22:55;;;;;;;2.83;2.47;;;-0.50;99.90;;;;;;4845846;29;20236;-80
2021/04/07 06:25:21;;;;;;;3.65;2.47;;;-0.50;99.90;;;;;;4847891;29;20221;-83
2021/04/07 06:27:49;;;;;;;3.03;1.85;;;-0.40;99.90;;;;;;4850633;29;20248;-84
2021/04/07 06:30:16;;;;;;;1.67;1.58;;;-0.30;99.90;;;;;;4843543;29;20223;-83
2021/04/07 06:32:42;;;;;;;1.17;1.17;;;-0.10;99.90;;;;;;4843358;29;20220;-81
2021/04/07 06:35:11;;;;;;;6.32;2.20;;;0.10;99.90;;;;;;4843769;29;20213;-81
2021/04/07 06:37:37;;;;;;;1.70;1.23;;;0.10;99.90;;;;;;4843146;29;20229;-81
2021/04/07 06:40:05;;;;;;;4.65;1.42;;;0.20;99.90;;;;;;4843318;29;20220;-81
2021/04/07 06:42:31;;;;;;;2.25;2.05;;;0.20;99.90;;;;;;4845920;29;20238;-84
2021/04/07 06:44:58;;;;;;;2.25;2.08;;;0.20;99.90;;;;;;4849825;29;20217;-83
2021/04/07 06:47:25;;;;;;;4.05;2.92;;;0.30;99.90;;;;;;4849643;29;20237;-84
2021/04/07 06:49:53;;;;;;;2.83;2.63;;;0.30;99.90;;;;;;4847871;29;20223;-85
2021/04/07 06:52:21;;;;;;;4.78;2.45;;;0.30;99.90;;;;;;4841438;29;20266;-84
2021/04/07 06:54:52;;;;;;;5.05;2.45;;;0.30;99.90;;;;;;4842056;29;20317;-86
2021/04/07 06:57:18;;;;;;;2.45;2.10;;;0.40;99.90;;;;;;4841503;29;20267;-86
2021/04/07 06:59:45;;;;;;;6.80;1.83;;;0.50;99.90;;;;;;4841112;29;20240;-86
2021/04/07 07:02:12;;;;;;;3.35;2.40;;;0.60;99.90;;;;;;4840923;29;20297;-86
2021/04/07 07:04:39;;;;;;;1.77;1.63;;;0.60;99.90;;;;;;4841356;29;20642;-86
2021/04/07 07:07:06;;;;;;;1.48;1.38;;;0.60;99.90;;;;;;4841054;29;20233;-86
2021/04/07 07:09:34;;;;;;;2.45;2.20;;;0.60;99.90;;;;;;4841107;29;20213;-86
2021/04/07 07:12:01;;;;;;;1.40;1.30;;;0.70;99.90;;;;;;4840681;29;20215;-86
2021/04/07 07:14:28;;;;;;;1.85;1.73;;;0.80;99.90;;;;;;4841151;29;20214;-86
2021/04/07 07:16:55;;;;;;;3.03;2.25;;;0.90;99.00;;;;;;4840949;29;20233;-86
2021/04/07 07:19:25;;;;;;;3.03;2.10;;;0.90;98.70;;;;;;4841146;29;20582;-86
2021/04/07 07:25:17;;;;;;;2.20;2.00;;;0.90;99.40;;;;;;4843688;29;20717;-86
2021/04/07 07:27:46;;;;;;;2.78;2.58;;;0.80;98.70;;;;;;4843962;29;20242;-86
2021/04/07 07:30:14;;;;;;;1.75;1.65;;;0.80;99.00;;;;;;4844229;29;20594;-85
2021/04/07 07:32:41;;;;;;;2.70;1.67;;;0.80;98.80;;;;;;4843862;29;20668;-86
2021/04/07 07:35:13;;;;;;;2.78;2.20;;;0.80;99.00;;;;;;4844069;29;20220;-85
2021/04/07 07:37:41;;;;;;;6.63;1.92;;;0.90;99.10;;;;;;4844089;29;20238;-86
2021/04/07 07:40:22;;;;;;;4.05;2.40;;;0.80;98.70;;;;;;4844063;29;20217;-85
2021/04/07 07:42:49;;;;;;;2.72;2.20;;;0.80;98.90;;;;;;4843801;29;20238;-86
2021/04/07 07:45:25;;;;;;;2.70;2.50;;;0.90;99.20;;;;;;4844009;29;20273;-86
2021/04/07 07:48:12;;;;;;;2.47;2.28;;;1.00;99.00;;;;;;4843691;29;20733;-86
2021/04/07 07:50:41;;;;;;;2.25;2.15;;;0.90;98.00;;;;;;4843990;29;20205;-86
2021/04/07 07:53:15;;;;;;;1.90;1.80;;;0.80;98.20;;;;;;4843674;29;20263;-85
2021/04/07 07:55:44;;;;;;;3.53;1.88;;;0.90;98.50;;;;;;4843709;29;20690;-85
2021/04/07 07:58:11;;;;;;;1.58;1.48;;;1.10;98.60;;;;;;4843568;29;20257;-86
2021/04/07 08:00:37;;;;;;;2.47;1.60;;;1.10;98.10;;;;;;4843830;29;20753;-86
2021/04/07 08:03:12;;;;;;;2.60;2.45;;;0.90;97.90;;;;;;4843274;29;20233;-86
2021/04/07 08:05:38;;;;;;;1.15;1.10;;;0.90;98.10;;;;;;4843465;29;20701;-86
2021/04/07 08:08:06;;;;;;;4.60;2.55;;;0.90;98.20;;;;;;4843399;29;20229;-86
2021/04/07 08:10:33;;;;;;;1.45;1.35;;;0.90;98.10;;;;;;4843640;29;20217;-85
2021/04/07 08:13:02;;;;;;;1.92;1.70;;;0.90;98.40;;;;;;4843233;29;20221;-86
2021/04/07 08:15:29;;;;;;;3.70;2.08;;;1.00;98.90;;;;;;4843343;29;20220;-86
2021/04/07 08:17:56;;;;;;;12.20;2.75;;;1.10;98.80;;;;;;4843131;29;20237;-85
2021/04/07 08:20:23;;;;;;;2.40;2.20;;;1.20;99.30;;;;;;4843230;29;20228;-86
2021/04/07 08:22:51;;;;;;;3.10;2.38;;;1.10;99.10;;;;;;4842987;29;20237;-85
2021/04/07 08:25:18;;;;;;;4.40;1.80;;;1.20;99.30;;;;;;4843256;29;20267;-85
2021/04/07 08:27:45;;;;;;;2.38;2.28;;;1.30;99.20;;;;;;4843210;29;20242;-85
2021/04/07 08:30:13;;;;;;;2.78;1.95;;;1.30;98.40;;;;;;4843601;29;20209;-85
2021/04/07 08:32:40;;;;;;;2.03;1.80;;;1.30;97.80;;;;;;4841830;29;20714;-85
2021/04/07 08:35:07;;;;;;;1.58;1.48;;;1.20;98.40;;;;;;4843311;29;20370;-85
2021/04/07 08:37:33;;;;;;;7.60;1.90;;;1.10;99.50;;;;;;4843179;29;20294;-85
2021/04/07 08:40:10;;;;;;;3.00;2.80;;;1.10;99.90;;;;;;4843068;29;20679;-85
2021/04/07 08:42:39;;;;;;;1.42;1.33;;;1.10;99.90;;;;;;4842701;29;20234;-85
2021/04/07 08:45:08;;;;;;;2.05;1.95;;;1.20;99.90;;;;;;4843347;29;20216;-85
2021/04/07 08:47:43;;;;;;;9.13;1.83;;;1.20;99.90;;;;;;4845992;29;20290;-85
2021/04/07 08:50:12;;;;;;;2.40;2.20;;;1.10;99.90;;;;;;4850264;29;20197;-85
2021/04/07 08:52:46;;;;;;;2.20;2.10;;;1.30;99.90;;;;;;4866977;29;20309;-85
2021/04/07 08:55:17;;;;;;;6.30;2.80;;;1.50;99.90;;;;;;4845483;29;20224;-85
2021/04/07 08:57:44;;;;;;;2.55;2.35;;;1.70;99.90;;;;;;4852400;29;20234;-85
2021/04/07 09:00:15;;;;;;;2.22;2.05;;;1.90;99.90;;;;;;4843457;29;20239;-85
2021/04/07 09:02:48;;;;;;;2.35;2.25;;;2.10;99.90;;;;;;4842729;29;20239;-85
2021/04/07 09:05:16;;;;;;;3.03;2.38;;;2.40;99.90;;;;;;4842822;29;20229;-84
2021/04/07 09:07:45;;;;;;;2.40;2.00;;;2.20;99.00;;;;;;4842879;29;20307;-84
2021/04/07 09:10:14;;;;;;;3.17;2.40;;;2.20;99.40;;;;;;4843351;29;20303;-84
2021/04/07 09:12:42;;;;;;;2.88;2.17;;;2.10;99.90;;;;;;4842869;29;20215;-85
2021/04/07 09:15:16;;;;;;;3.13;2.70;;;1.90;99.90;;;;;;4843186;29;20212;-85
2021/04/07 09:17:43;;;;;;;3.08;2.40;;;1.80;99.90;;;;;;4842826;29;20237;-84
2021/04/07 09:20:32;;;;;;;2.53;2.33;;;1.60;99.90;;;;;;4842891;29;20266;-85
2021/04/07 09:23:07;;;;;;;2.67;2.47;;;1.50;99.90;;;;;;4842756;29;20702;-85
2021/04/07 09:25:34;;;;;;;4.88;3.58;;;1.40;99.90;;;;;;4843102;29;20200;-84
2021/04/07 09:28:05;;;;;;;2.35;2.20;;;1.40;99.90;;;;;;4842558;29;20954;-85
2021/04/07 09:30:39;;;;;;;2.53;2.33;;;1.50;99.90;;;;;;4844222;29;20215;-85
2021/04/07 09:33:07;;;;;;;2.70;1.95;;;1.40;99.90;;;;;;4845174;29;20210;-84
2021/04/07 09:35:36;;;;;;;2.15;2.05;;;1.40;99.90;;;;;;4844659;29;20222;-85
2021/04/07 09:38:03;;;;;;;1.90;1.73;;;1.60;99.90;;;;;;4845429;29;20237;-85
2021/04/07 09:40:30;;;;;;;1.75;1.67;;;1.60;99.90;;;;;;4851306;29;20218;-85
2021/04/07 09:42:57;;;;;;;1.45;1.35;;;1.60;99.60;;;;;;4860103;29;20229;-84
2021/04/07 09:45:24;;;;;;;1.50;1.40;;;1.60;99.30;;;;;;4851378;29;20219;-84
2021/04/07 09:47:55;;;;;;;1.95;1.85;;;1.70;99.50;;;;;;4843247;29;20235;-84
2021/04/07 09:50:21;;;;;;;6.05;3.08;;;2.00;99.80;;;;;;4843433;29;20221;-84
2021/04/07 09:52:48;;;;;;;4.75;2.55;;;2.20;99.40;;;;;;4843239;29;20250;-85
2021/04/07 09:55:21;;;;;;;2.63;2.33;;;2.40;99.60;;;;;;4843283;29;20710;-85
2021/04/07 09:58:01;;;;;;;2.22;2.08;;;2.50;98.00;;;;;;4842996;29;20294;-84
2021/04/07 10:00:33;;;;;;;1.98;1.88;;;2.50;97.30;;;;;;4843455;29;20210;-85
2021/04/07 10:03:01;;;;;;;12.18;2.33;;;2.60;96.60;;;;;;4843351;29;20239;-85
2021/04/07 10:05:29;;;;;;;2.25;2.13;;;3.00;96.70;;;;;;4843332;29;20252;-85
2021/04/07 10:08:11;;;;;;;2.85;1.73;;;3.40;97.10;;;;;;4843664;29;20229;-85
2021/04/07 10:10:38;;;;;;;2.03;1.88;;;3.40;95.00;;;;;;4844766;29;20224;-84
2021/04/07 10:13:04;;;;;;;3.20;2.25;;;3.60;94.70;;;;;;4844066;29;20554;-84
2021/04/07 10:15:30;;;;;;;3.10;2.80;;;3.90;94.70;;;;;;4844938;29;20238;-84
2021/04/07 10:17:57;;;;;;;3.53;1.88;;;4.10;93.90;;;;;;4845672;29;20598;-84
2021/04/07 10:20:28;;;;;;;3.63;2.58;;;4.20;93.10;;;;;;4845598;29;20221;-85
2021/04/07 10:22:56;;;;;;;3.97;2.17;;;4.30;92.80;;;;;;4846674;29;20692;-84
2021/04/07 10:25:26;;;;;;;2.78;2.00;;;4.10;93.10;;;;;;4847836;29;20252;-84
2021/04/07 10:28:08;;;;;;;1.88;1.77;;;3.90;94.60;;;;;;4855511;24;20246;-82
2021/04/07 10:30:42;;;;;;;2.10;2.00;;;3.60;96.20;;;;;;4831300;29;20196;-82
2021/04/07 10:33:08;;;;;;;2.05;1.95;;;3.20;97.40;;;;;;4831181;29;20205;-82
2021/04/07 10:35:35;;;;;;;1.83;1.70;;;3.00;97.90;;;;;;4831018;29;20690;-81
2021/04/07 10:38:05;;;;;;;1.83;1.50;;;2.70;97.90;;;;;;4831428;29;20261;-82
2021/04/07 10:40:33;;;;;;;2.10;2.00;;;2.40;97.80;;;;;;4849633;29;20215;-82
2021/04/07 10:43:10;;;;;;;2.40;2.20;;;2.00;98.10;;;;;;4849084;29;20234;-81
2021/04/07 10:45:37;;;;;;;2.00;1.85;;;1.80;98.30;;;;;;4849391;29;20197;-81
2021/04/07 10:48:04;;;;;;;2.30;2.05;;;1.70;97.20;;;;;;4849176;29;20248;-82
2021/04/07 10:50:31;;;;;;;4.95;3.08;;;2.00;97.30;;;;;;4851463;29;20238;-81
2021/04/07 10:52:57;;;;;;;1.52;1.42;;;2.30;96.60;;;;;;4864219;29;20237;-81
2021/04/07 10:55:27;;;;;;;3.60;2.53;;;2.60;96.20;;;;;;4865469;29;20273;-81
2021/04/07 10:57:58;;;;;;;1.70;1.45;;;2.80;95.50;;;;;;4868766;29;20237;-81
2021/04/07 11:00:28;;;;;;;1.67;1.58;;;2.90;94.90;;;;;;4855337;29;20226;-82
2021/04/07 11:03:05;;;;;;;;;;;;;;;;;;;;;
2021/04/07 11:15:48;;;;;;;1.55;1.30;;;4.00;91.80;;;;;;4665826;30;20239;-82
2021/04/07 11:18:14;;;;;;;1.55;1.45;;;4.10;91.00;;;;;;4778584;29;20254;-82
2021/04/07 11:20:44;;;;;;;2.55;1.45;;;4.20;91.30;;;;;;4847776;29;20200;-83
2021/04/07 11:23:11;;;;;;;1.73;1.42;;;4.40;90.60;;;;;;4851736;29;20320;-83
2021/04/07 11:25:37;;;;;;;2.42;1.60;;;4.20;89.80;;;;;;4852439;29;20213;-82
2021/04/07 11:28:04;;;;;;;2.65;1.42;;;4.20;90.20;;;;;;4851550;29;20308;-82
2021/04/07 11:30:32;;;;;;;3.45;1.80;;;4.20;89.60;;;;;;4852086;29;20217;-82
2021/04/07 11:33:01;;;;;;;2.25;1.17;;;4.40;89.90;;;;;;4851908;29;20209;-82
2021/04/07 11:35:37;;;;;;;3.38;1.65;;;4.60;88.50;;;;;;4851968;29;20213;-82
2021/04/07 11:38:05;;;;;;;1.40;1.30;;;4.90;88.00;;;;;;4851951;29;20268;-82
2021/04/07 11:40:41;;;;;;;1.83;1.73;;;5.20;85.30;;;;;;4851637;29;20404;-82
2021/04/07 11:43:12;;;;;;;1.88;1.55;;;5.40;85.30;;;;;;4851353;29;20266;-82
2021/04/07 11:45:38;;;;;;;1.63;1.10;;;5.70;85.10;;;;;;4851700;29;20273;-83
2021/04/07 11:48:08;;;;;;;1.60;1.50;;;6.30;84.80;;;;;;4851834;29;20359;-83
2021/04/07 11:50:36;;;;;;;3.50;1.55;;;6.70;80.20;;;;;;4851765;29;20253;-84
2021/04/07 11:53:03;;;;;;;2.00;1.90;;;6.30;76.90;;;;;;4852462;29;20213;-85
2021/04/07 11:55:47;;;;;;;1.90;1.80;;;5.70;77.50;;;;;;4851396;29;20217;-85
2021/04/07 13:17:15;;;;;;;3.20;1.92;;;3.70;86.90;;;;;;4758387;29;20240;-82
2021/04/07 13:48:08;;;;;;;2.60;1.75;;;3.10;91.20;;;;;;4634443;31;21360;-83
2021/04/07 14:09:01;;;;;;;;;;;;;;;;;;;;;
2021/04/07 14:53:27;;;;;;;2.00;1.40;;;3.00;91.60;;;;;;4737410;30;20254;-84
2021/04/07 15:18:25;;;;;;;1.70;1.60;;;2.30;98.10;;;;;;4742526;30;20243;-82
2021/04/07 15:21:14;;;;;;;;;;;;;;;;;;;;;
2021/04/07 15:34:57;;;;;;;;;;;;;;;;;;;;;
2021/04/07 15:47:53;;;;;;;3.70;3.08;;;1.30;99.90;;;;;;4642243;30;20232;-82
2021/04/07 15:50:20;;;;;;;3.60;3.20;;;1.20;99.90;;;;;;4661128;30;20681;-81
2021/04/07 15:52:47;;;;;;;2.70;2.50;;;1.20;99.90;;;;;;4802243;29;20716;-82
2021/04/07 15:55:14;;;;;;;4.30;3.75;;;1.30;99.90;;;;;;4847855;29;20229;-82
2021/04/07 15:57:40;;;;;;;3.65;3.45;;;1.40;99.90;;;;;;4846750;29;20240;-82
2021/04/07 16:00:08;;;;;;;3.60;3.30;;;1.50;99.90;;;;;;4855876;29;20208;-82
2021/04/07 20:27:31;;;;;;;;;;;;;;;;;;;;;
2021/04/07 21:02:37;;;;;;;2.25;2.05;;;2.40;99.90;;;;;;4682175;30;20232;-83
2021/04/07 21:08:55;;;;;;;;;;;;;;;;;;;;;
2021/04/07 22:31:18;;;;;;;;;;;;;;;;;;;;;
2021/04/07 22:49:00;;;;;;;4.53;4.13;;;2.50;99.90;;;;;;4603372;31;20239;-81
2021/04/07 22:51:27;;;;;;;3.85;3.42;;;2.50;99.90;;;;;;4658021;30;20227;-82
2021/04/07 22:53:54;;;;;;;5.13;3.55;;;2.50;99.90;;;;;;4782062;30;20222;-81
2021/04/07 22:56:20;;;;;;;4.05;3.75;;;2.40;99.90;;;;;;4794549;30;20221;-82
2021/04/07 22:58:48;;;;;;;3.22;2.92;;;2.40;99.90;;;;;;4795108;30;20650;-82
2021/04/07 23:01:14;;;;;;;3.55;3.28;;;2.40;99.90;;;;;;4794639;30;20216;-82
2021/04/07 23:03:41;;;;;;;3.83;2.72;;;2.40;99.90;;;;;;4794054;30;20293;-82
2021/04/07 23:06:08;;;;;;;3.88;3.53;;;2.40;99.90;;;;;;4793546;30;20215;-83
2021/04/07 23:08:35;;;;;;;3.47;3.28;;;2.40;99.90;;;;;;4793271;30;20326;-82
2021/04/07 23:11:01;;;;;;;3.95;3.55;;;2.40;99.90;;;;;;4793615;30;20254;-82
2021/04/07 23:13:27;;;;;;;4.30;3.85;;;2.30;99.90;;;;;;4793423;30;20218;-82
2021/04/07 23:15:54;;;;;;;3.83;3.22;;;2.30;99.90;;;;;;4793833;30;20217;-82
2021/04/07 23:18:21;;;;;;;5.80;3.70;;;2.30;99.90;;;;;;4793308;30;20232;-82
2021/04/07 23:20:47;;;;;;;7.47;4.90;;;2.30;99.90;;;;;;4794239;30;20220;-82
2021/04/07 23:23:13;;;;;;;4.65;4.25;;;2.20;99.90;;;;;;4794366;30;20236;-82
2021/04/07 23:25:40;;;;;;;6.63;4.03;;;2.20;99.90;;;;;;4793072;30;20223;-82